sensor_id;sensor_type;location;lat;lon;timestamp;P1;durP1;ratioP1;P2;durP2;ratioP2
24143;SDS011;12307;50.828;6.080;2023-06-26T00:01:07;1.77;;;1.67;;
24143;SDS011;12307;50.828;6.080;2023-06-26T00:03:33;1.98;;;1.80;;
24143;SDS011;12307;50.828;6.080;2023-06-26T00:06:00;2.15;;;1.95;;
24143;SDS011;12307;50.828;6.080;2023-06-26T00:08:26;1.67;;;1.58;;
24143;SDS011;12307;50.828;6.080;2023-06-26T00:10:51;2.95;;;2.05;;
24143;SDS011;12307;50.828;6.080;2023-06-26T00:13:18;2.05;;;1.88;;
24143;SDS011;12307;50.828;6.080;2023-06-26T00:15:44;1.73;;;1.63;;
24143;SDS011;12307;50.828;6.080;2023-06-26T00:18:09;1.85;;;1.75;;
24143;SDS011;12307;50.828;6.080;2023-06-26T00:20:35;1.80;;;1.70;;
24143;SDS011;12307;50.828;6.080;2023-06-26T00:23:02;1.90;;;1.80;;
24143;SDS011;12307;50.828;6.080;2023-06-26T00:25:32;1.73;;;1.63;;
24143;SDS011;12307;50.828;6.080;2023-06-26T00:27:58;1.73;;;1.63;;
24143;SDS011;12307;50.828;6.080;2023-06-26T00:30:23;2.08;;;1.88;;
24143;SDS011;12307;50.828;6.080;2023-06-26T00:32:49;1.70;;;1.60;;
24143;SDS011;12307;50.828;6.080;2023-06-26T00:35:16;2.13;;;1.92;;
24143;SDS011;12307;50.828;6.080;2023-06-26T00:37:41;1.60;;;1.50;;
24143;SDS011;12307;50.828;6.080;2023-06-26T00:40:09;1.98;;;1.88;;
24143;SDS011;12307;50.828;6.080;2023-06-26T00:42:35;2.08;;;1.90;;
24143;SDS011;12307;50.828;6.080;2023-06-26T00:45:01;1.83;;;1.73;;
24143;SDS011;12307;50.828;6.080;2023-06-26T00:47:27;1.88;;;1.77;;
24143;SDS011;12307;50.828;6.080;2023-06-26T00:49:53;1.88;;;1.77;;
24143;SDS011;12307;50.828;6.080;2023-06-26T00:52:20;2.13;;;1.92;;
24143;SDS011;12307;50.828;6.080;2023-06-26T00:54:46;2.33;;;2.15;;
24143;SDS011;12307;50.828;6.080;2023-06-26T00:57:14;1.88;;;1.77;;
24143;SDS011;12307;50.828;6.080;2023-06-26T00:59:40;1.90;;;1.80;;
24143;SDS011;12307;50.828;6.080;2023-06-26T01:02:06;1.92;;;1.83;;
24143;SDS011;12307;50.828;6.080;2023-06-26T01:04:32;1.80;;;1.70;;
24143;SDS011;12307;50.828;6.080;2023-06-26T01:06:58;2.10;;;1.90;;
24143;SDS011;12307;50.828;6.080;2023-06-26T01:09:24;1.83;;;1.70;;
24143;SDS011;12307;50.828;6.080;2023-06-26T01:11:51;1.92;;;1.83;;
24143;SDS011;12307;50.828;6.080;2023-06-26T01:14:18;2.03;;;1.83;;
24143;SDS011;12307;50.828;6.080;2023-06-26T01:16:44;2.33;;;2.13;;
24143;SDS011;12307;50.828;6.080;2023-06-26T01:19:13;1.80;;;1.70;;
24143;SDS011;12307;50.828;6.080;2023-06-26T01:21:49;2.15;;;1.95;;
24143;SDS011;12307;50.828;6.080;2023-06-26T01:24:22;1.80;;;1.70;;
24143;SDS011;12307;50.828;6.080;2023-06-26T01:26:53;2.13;;;1.92;;
24143;SDS011;12307;50.828;6.080;2023-06-26T01:29:20;2.00;;;1.85;;
24143;SDS011;12307;50.828;6.080;2023-06-26T01:31:48;2.20;;;2.00;;
24143;SDS011;12307;50.828;6.080;2023-06-26T01:34:15;1.98;;;1.88;;
24143;SDS011;12307;50.828;6.080;2023-06-26T01:36:41;2.03;;;1.90;;
24143;SDS011;12307;50.828;6.080;2023-06-26T01:39:07;1.90;;;1.80;;
24143;SDS011;12307;50.828;6.080;2023-06-26T01:41:33;1.65;;;1.55;;
24143;SDS011;12307;50.828;6.080;2023-06-26T01:44:07;1.90;;;1.80;;
24143;SDS011;12307;50.828;6.080;2023-06-26T01:46:40;1.90;;;1.80;;
24143;SDS011;12307;50.828;6.080;2023-06-26T01:49:14;2.08;;;1.88;;
24143;SDS011;12307;50.828;6.080;2023-06-26T01:51:45;2.10;;;1.90;;
24143;SDS011;12307;50.828;6.080;2023-06-26T01:54:17;2.05;;;1.88;;
24143;SDS011;12307;50.828;6.080;2023-06-26T01:56:47;1.90;;;1.80;;
24143;SDS011;12307;50.828;6.080;2023-06-26T01:59:16;2.15;;;1.95;;
24143;SDS011;12307;50.828;6.080;2023-06-26T02:01:43;1.98;;;1.88;;
24143;SDS011;12307;50.828;6.080;2023-06-26T02:04:09;2.15;;;1.95;;
24143;SDS011;12307;50.828;6.080;2023-06-26T02:06:35;2.25;;;1.52;;
24143;SDS011;12307;50.828;6.080;2023-06-26T02:09:00;2.33;;;2.13;;
24143;SDS011;12307;50.828;6.080;2023-06-26T02:11:27;2.00;;;1.90;;
24143;SDS011;12307;50.828;6.080;2023-06-26T02:13:52;2.20;;;2.10;;
24143;SDS011;12307;50.828;6.080;2023-06-26T02:16:19;1.98;;;1.88;;
24143;SDS011;12307;50.828;6.080;2023-06-26T02:18:45;2.05;;;1.85;;
24143;SDS011;12307;50.828;6.080;2023-06-26T02:21:13;2.08;;;1.98;;
24143;SDS011;12307;50.828;6.080;2023-06-26T02:23:38;1.90;;;1.80;;
24143;SDS011;12307;50.828;6.080;2023-06-26T02:26:04;1.95;;;1.85;;
24143;SDS011;12307;50.828;6.080;2023-06-26T02:28:30;2.10;;;1.80;;
24143;SDS011;12307;50.828;6.080;2023-06-26T02:30:56;2.20;;;2.08;;
24143;SDS011;12307;50.828;6.080;2023-06-26T02:33:23;2.33;;;2.13;;
24143;SDS011;12307;50.828;6.080;2023-06-26T02:35:49;2.15;;;2.00;;
24143;SDS011;12307;50.828;6.080;2023-06-26T02:38:15;2.25;;;2.05;;
24143;SDS011;12307;50.828;6.080;2023-06-26T02:40:41;2.28;;;2.08;;
24143;SDS011;12307;50.828;6.080;2023-06-26T02:43:07;1.95;;;1.85;;
24143;SDS011;12307;50.828;6.080;2023-06-26T02:45:33;2.20;;;2.00;;
24143;SDS011;12307;50.828;6.080;2023-06-26T02:47:58;2.25;;;2.05;;
24143;SDS011;12307;50.828;6.080;2023-06-26T02:50:25;2.60;;;2.40;;
24143;SDS011;12307;50.828;6.080;2023-06-26T02:52:51;2.35;;;2.15;;
24143;SDS011;12307;50.828;6.080;2023-06-26T02:55:17;2.30;;;2.08;;
24143;SDS011;12307;50.828;6.080;2023-06-26T02:57:43;2.33;;;2.13;;
24143;SDS011;12307;50.828;6.080;2023-06-26T03:00:09;2.20;;;2.00;;
24143;SDS011;12307;50.828;6.080;2023-06-26T03:02:36;2.47;;;2.28;;
24143;SDS011;12307;50.828;6.080;2023-06-26T03:05:02;2.47;;;2.28;;
24143;SDS011;12307;50.828;6.080;2023-06-26T03:07:30;2.30;;;2.10;;
24143;SDS011;12307;50.828;6.080;2023-06-26T03:09:56;2.67;;;2.47;;
24143;SDS011;12307;50.828;6.080;2023-06-26T03:12:22;2.63;;;2.00;;
24143;SDS011;12307;50.828;6.080;2023-06-26T03:14:47;2.40;;;2.20;;
24143;SDS011;12307;50.828;6.080;2023-06-26T03:17:13;2.20;;;2.00;;
24143;SDS011;12307;50.828;6.080;2023-06-26T03:19:39;2.13;;;2.00;;
24143;SDS011;12307;50.828;6.080;2023-06-26T03:22:04;2.35;;;2.15;;
24143;SDS011;12307;50.828;6.080;2023-06-26T03:24:32;2.30;;;2.08;;
24143;SDS011;12307;50.828;6.080;2023-06-26T03:26:58;2.55;;;2.17;;
24143;SDS011;12307;50.828;6.080;2023-06-26T03:29:24;2.40;;;2.20;;
24143;SDS011;12307;50.828;6.080;2023-06-26T03:31:50;2.15;;;1.95;;
24143;SDS011;12307;50.828;6.080;2023-06-26T03:34:16;2.47;;;2.28;;
24143;SDS011;12307;50.828;6.080;2023-06-26T03:36:41;2.40;;;2.20;;
24143;SDS011;12307;50.828;6.080;2023-06-26T03:39:07;2.78;;;2.42;;
24143;SDS011;12307;50.828;6.080;2023-06-26T03:41:34;2.55;;;2.35;;
24143;SDS011;12307;50.828;6.080;2023-06-26T03:44:00;2.20;;;2.00;;
24143;SDS011;12307;50.828;6.080;2023-06-26T03:46:27;2.40;;;2.20;;
24143;SDS011;12307;50.828;6.080;2023-06-26T03:48:52;2.58;;;2.38;;
24143;SDS011;12307;50.828;6.080;2023-06-26T03:51:18;2.47;;;2.28;;
24143;SDS011;12307;50.828;6.080;2023-06-26T03:53:44;2.50;;;2.30;;
24143;SDS011;12307;50.828;6.080;2023-06-26T03:56:10;2.50;;;2.30;;
24143;SDS011;12307;50.828;6.080;2023-06-26T03:58:37;2.20;;;2.00;;
24143;SDS011;12307;50.828;6.080;2023-06-26T04:01:03;2.58;;;2.38;;
24143;SDS011;12307;50.828;6.080;2023-06-26T04:03:28;2.47;;;2.28;;
24143;SDS011;12307;50.828;6.080;2023-06-26T04:05:54;2.72;;;2.20;;
24143;SDS011;12307;50.828;6.080;2023-06-26T04:08:20;2.50;;;2.30;;
24143;SDS011;12307;50.828;6.080;2023-06-26T04:10:46;2.33;;;2.13;;
24143;SDS011;12307;50.828;6.080;2023-06-26T04:13:13;2.55;;;2.35;;
24143;SDS011;12307;50.828;6.080;2023-06-26T04:15:40;2.30;;;2.10;;
24143;SDS011;12307;50.828;6.080;2023-06-26T04:18:06;2.45;;;2.25;;
24143;SDS011;12307;50.828;6.080;2023-06-26T04:20:32;2.40;;;2.20;;
24143;SDS011;12307;50.828;6.080;2023-06-26T04:23:00;2.28;;;2.08;;
24143;SDS011;12307;50.828;6.080;2023-06-26T04:25:25;2.10;;;1.90;;
24143;SDS011;12307;50.828;6.080;2023-06-26T04:27:54;2.30;;;2.10;;
24143;SDS011;12307;50.828;6.080;2023-06-26T04:30:20;2.25;;;2.05;;
24143;SDS011;12307;50.828;6.080;2023-06-26T04:32:47;2.40;;;2.20;;
24143;SDS011;12307;50.828;6.080;2023-06-26T04:35:13;2.47;;;2.28;;
24143;SDS011;12307;50.828;6.080;2023-06-26T04:37:38;2.00;;;1.90;;
24143;SDS011;12307;50.828;6.080;2023-06-26T04:40:05;2.00;;;1.90;;
24143;SDS011;12307;50.828;6.080;2023-06-26T04:42:32;2.30;;;2.10;;
24143;SDS011;12307;50.828;6.080;2023-06-26T04:44:58;2.40;;;2.20;;
24143;SDS011;12307;50.828;6.080;2023-06-26T04:47:23;2.65;;;2.45;;
24143;SDS011;12307;50.828;6.080;2023-06-26T04:49:50;2.05;;;1.95;;
24143;SDS011;12307;50.828;6.080;2023-06-26T04:52:16;2.20;;;2.00;;
24143;SDS011;12307;50.828;6.080;2023-06-26T04:54:42;2.17;;;2.08;;
24143;SDS011;12307;50.828;6.080;2023-06-26T04:57:07;2.30;;;2.03;;
24143;SDS011;12307;50.828;6.080;2023-06-26T04:59:37;2.58;;;2.38;;
24143;SDS011;12307;50.828;6.080;2023-06-26T05:02:03;2.40;;;2.20;;
24143;SDS011;12307;50.828;6.080;2023-06-26T05:04:30;2.22;;;2.03;;
24143;SDS011;12307;50.828;6.080;2023-06-26T05:06:57;2.35;;;2.15;;
24143;SDS011;12307;50.828;6.080;2023-06-26T05:09:22;2.03;;;1.85;;
24143;SDS011;12307;50.828;6.080;2023-06-26T05:11:48;2.38;;;2.05;;
24143;SDS011;12307;50.828;6.080;2023-06-26T05:14:14;2.47;;;2.28;;
24143;SDS011;12307;50.828;6.080;2023-06-26T05:16:39;2.00;;;1.90;;
24143;SDS011;12307;50.828;6.080;2023-06-26T05:19:05;2.05;;;1.95;;
24143;SDS011;12307;50.828;6.080;2023-06-26T05:21:31;2.40;;;2.20;;
24143;SDS011;12307;50.828;6.080;2023-06-26T05:23:58;2.33;;;2.13;;
24143;SDS011;12307;50.828;6.080;2023-06-26T05:26:27;2.30;;;2.10;;
24143;SDS011;12307;50.828;6.080;2023-06-26T05:28:54;2.15;;;1.85;;
24143;SDS011;12307;50.828;6.080;2023-06-26T05:31:20;2.03;;;1.85;;
24143;SDS011;12307;50.828;6.080;2023-06-26T05:33:46;1.88;;;1.73;;
24143;SDS011;12307;50.828;6.080;2023-06-26T05:36:13;2.10;;;1.90;;
24143;SDS011;12307;50.828;6.080;2023-06-26T05:38:41;2.40;;;2.20;;
24143;SDS011;12307;50.828;6.080;2023-06-26T05:41:08;2.08;;;1.90;;
24143;SDS011;12307;50.828;6.080;2023-06-26T05:43:35;2.05;;;1.88;;
24143;SDS011;12307;50.828;6.080;2023-06-26T05:46:00;2.08;;;1.88;;
24143;SDS011;12307;50.828;6.080;2023-06-26T05:48:26;2.10;;;2.00;;
24143;SDS011;12307;50.828;6.080;2023-06-26T05:50:52;2.00;;;1.90;;
24143;SDS011;12307;50.828;6.080;2023-06-26T05:53:18;2.28;;;2.08;;
24143;SDS011;12307;50.828;6.080;2023-06-26T05:55:44;2.00;;;1.90;;
24143;SDS011;12307;50.828;6.080;2023-06-26T05:58:12;2.05;;;1.90;;
24143;SDS011;12307;50.828;6.080;2023-06-26T06:00:39;2.28;;;2.08;;
24143;SDS011;12307;50.828;6.080;2023-06-26T06:03:06;2.10;;;1.90;;
24143;SDS011;12307;50.828;6.080;2023-06-26T06:05:31;2.00;;;1.80;;
24143;SDS011;12307;50.828;6.080;2023-06-26T06:07:57;1.92;;;1.80;;
24143;SDS011;12307;50.828;6.080;2023-06-26T06:10:23;2.20;;;2.00;;
24143;SDS011;12307;50.828;6.080;2023-06-26T06:12:49;1.70;;;1.60;;
24143;SDS011;12307;50.828;6.080;2023-06-26T06:15:16;2.30;;;2.10;;
24143;SDS011;12307;50.828;6.080;2023-06-26T06:17:41;2.15;;;1.95;;
24143;SDS011;12307;50.828;6.080;2023-06-26T06:20:08;2.80;;;2.20;;
24143;SDS011;12307;50.828;6.080;2023-06-26T06:22:34;2.83;;;1.95;;
24143;SDS011;12307;50.828;6.080;2023-06-26T06:24:59;2.90;;;2.08;;
24143;SDS011;12307;50.828;6.080;2023-06-26T06:27:25;2.67;;;2.05;;
24143;SDS011;12307;50.828;6.080;2023-06-26T06:29:51;2.65;;;2.22;;
24143;SDS011;12307;50.828;6.080;2023-06-26T06:32:19;2.75;;;2.13;;
24143;SDS011;12307;50.828;6.080;2023-06-26T06:34:44;3.10;;;2.10;;
24143;SDS011;12307;50.828;6.080;2023-06-26T06:37:10;2.88;;;2.08;;
24143;SDS011;12307;50.828;6.080;2023-06-26T06:39:36;3.10;;;2.33;;
24143;SDS011;12307;50.828;6.080;2023-06-26T06:42:01;3.38;;;2.47;;
24143;SDS011;12307;50.828;6.080;2023-06-26T06:44:27;4.78;;;2.50;;
24143;SDS011;12307;50.828;6.080;2023-06-26T06:46:55;3.80;;;2.33;;
24143;SDS011;12307;50.828;6.080;2023-06-26T06:49:22;2.65;;;2.40;;
24143;SDS011;12307;50.828;6.080;2023-06-26T06:51:48;2.53;;;2.00;;
24143;SDS011;12307;50.828;6.080;2023-06-26T06:54:15;2.42;;;2.20;;
24143;SDS011;12307;50.828;6.080;2023-06-26T06:56:41;3.13;;;2.20;;
24143;SDS011;12307;50.828;6.080;2023-06-26T06:59:07;3.85;;;2.60;;
24143;SDS011;12307;50.828;6.080;2023-06-26T07:01:33;2.25;;;2.03;;
24143;SDS011;12307;50.828;6.080;2023-06-26T07:03:59;3.25;;;2.13;;
24143;SDS011;12307;50.828;6.080;2023-06-26T07:06:26;3.50;;;2.10;;
24143;SDS011;12307;50.828;6.080;2023-06-26T07:08:51;3.15;;;2.40;;
24143;SDS011;12307;50.828;6.080;2023-06-26T07:11:17;3.65;;;2.80;;
24143;SDS011;12307;50.828;6.080;2023-06-26T07:13:43;3.67;;;2.30;;
24143;SDS011;12307;50.828;6.080;2023-06-26T07:16:08;3.55;;;2.20;;
24143;SDS011;12307;50.828;6.080;2023-06-26T07:18:36;2.75;;;2.10;;
24143;SDS011;12307;50.828;6.080;2023-06-26T07:21:03;3.08;;;2.20;;
24143;SDS011;12307;50.828;6.080;2023-06-26T07:23:30;3.78;;;2.42;;
24143;SDS011;12307;50.828;6.080;2023-06-26T07:25:56;2.72;;;2.03;;
24143;SDS011;12307;50.828;6.080;2023-06-26T07:28:21;5.38;;;2.47;;
24143;SDS011;12307;50.828;6.080;2023-06-26T07:30:47;5.68;;;2.30;;
24143;SDS011;12307;50.828;6.080;2023-06-26T07:33:13;3.35;;;2.10;;
24143;SDS011;12307;50.828;6.080;2023-06-26T07:35:39;4.30;;;2.55;;
24143;SDS011;12307;50.828;6.080;2023-06-26T07:38:05;3.28;;;2.20;;
24143;SDS011;12307;50.828;6.080;2023-06-26T07:40:32;3.97;;;2.10;;
24143;SDS011;12307;50.828;6.080;2023-06-26T07:42:57;4.03;;;2.30;;
24143;SDS011;12307;50.828;6.080;2023-06-26T07:45:23;2.80;;;2.10;;
24143;SDS011;12307;50.828;6.080;2023-06-26T07:47:49;4.28;;;2.20;;
24143;SDS011;12307;50.828;6.080;2023-06-26T07:50:14;3.42;;;2.28;;
24143;SDS011;12307;50.828;6.080;2023-06-26T07:52:47;3.58;;;2.30;;
24143;SDS011;12307;50.828;6.080;2023-06-26T07:55:13;4.15;;;2.10;;
24143;SDS011;12307;50.828;6.080;2023-06-26T07:57:40;3.80;;;2.22;;
24143;SDS011;12307;50.828;6.080;2023-06-26T08:00:06;4.05;;;2.25;;
24143;SDS011;12307;50.828;6.080;2023-06-26T08:02:32;4.25;;;2.35;;
24143;SDS011;12307;50.828;6.080;2023-06-26T08:04:58;3.80;;;2.40;;
24143;SDS011;12307;50.828;6.080;2023-06-26T08:07:24;3.97;;;2.22;;
24143;SDS011;12307;50.828;6.080;2023-06-26T08:09:49;4.85;;;2.30;;
24143;SDS011;12307;50.828;6.080;2023-06-26T08:12:15;2.28;;;1.88;;
24143;SDS011;12307;50.828;6.080;2023-06-26T08:14:42;5.05;;;2.45;;
24143;SDS011;12307;50.828;6.080;2023-06-26T08:17:08;2.85;;;1.95;;
24143;SDS011;12307;50.828;6.080;2023-06-26T08:19:33;3.47;;;2.15;;
24143;SDS011;12307;50.828;6.080;2023-06-26T08:21:59;4.30;;;2.35;;
24143;SDS011;12307;50.828;6.080;2023-06-26T08:24:25;4.55;;;2.30;;
24143;SDS011;12307;50.828;6.080;2023-06-26T08:26:50;5.43;;;2.30;;
24143;SDS011;12307;50.828;6.080;2023-06-26T08:29:16;6.05;;;2.17;;
24143;SDS011;12307;50.828;6.080;2023-06-26T08:31:43;4.38;;;2.20;;
24143;SDS011;12307;50.828;6.080;2023-06-26T08:34:09;2.90;;;1.80;;
24143;SDS011;12307;50.828;6.080;2023-06-26T08:36:36;5.07;;;2.20;;
24143;SDS011;12307;50.828;6.080;2023-06-26T08:39:01;4.32;;;2.03;;
24143;SDS011;12307;50.828;6.080;2023-06-26T08:41:28;3.58;;;1.80;;
24143;SDS011;12307;50.828;6.080;2023-06-26T08:43:53;3.30;;;1.80;;
24143;SDS011;12307;50.828;6.080;2023-06-26T08:46:19;3.80;;;1.98;;
24143;SDS011;12307;50.828;6.080;2023-06-26T08:48:48;4.55;;;2.05;;
24143;SDS011;12307;50.828;6.080;2023-06-26T08:51:19;2.20;;;1.55;;
24143;SDS011;12307;50.828;6.080;2023-06-26T08:53:50;4.15;;;1.92;;
24143;SDS011;12307;50.828;6.080;2023-06-26T08:56:22;3.75;;;2.03;;
24143;SDS011;12307;50.828;6.080;2023-06-26T08:58:49;3.00;;;1.98;;
24143;SDS011;12307;50.828;6.080;2023-06-26T09:01:16;3.03;;;1.80;;
24143;SDS011;12307;50.828;6.080;2023-06-26T09:03:44;4.82;;;1.92;;
24143;SDS011;12307;50.828;6.080;2023-06-26T09:06:11;4.10;;;1.67;;
24143;SDS011;12307;50.828;6.080;2023-06-26T09:08:37;4.20;;;1.85;;
24143;SDS011;12307;50.828;6.080;2023-06-26T09:11:02;2.70;;;1.50;;
24143;SDS011;12307;50.828;6.080;2023-06-26T09:13:28;2.92;;;1.55;;
24143;SDS011;12307;50.828;6.080;2023-06-26T09:15:55;3.47;;;1.80;;
24143;SDS011;12307;50.828;6.080;2023-06-26T09:18:21;3.72;;;1.80;;
24143;SDS011;12307;50.828;6.080;2023-06-26T09:20:47;3.72;;;1.80;;
24143;SDS011;12307;50.828;6.080;2023-06-26T09:23:14;2.47;;;1.50;;
24143;SDS011;12307;50.828;6.080;2023-06-26T09:25:39;4.10;;;1.70;;
24143;SDS011;12307;50.828;6.080;2023-06-26T09:28:06;2.67;;;1.45;;
24143;SDS011;12307;50.828;6.080;2023-06-26T09:30:33;2.50;;;1.40;;
24143;SDS011;12307;50.828;6.080;2023-06-26T09:33:00;3.03;;;1.67;;
24143;SDS011;12307;50.828;6.080;2023-06-26T09:35:38;2.58;;;1.45;;
24143;SDS011;12307;50.828;6.080;2023-06-26T09:38:04;2.35;;;1.42;;
24143;SDS011;12307;50.828;6.080;2023-06-26T09:40:31;3.45;;;1.45;;
24143;SDS011;12307;50.828;6.080;2023-06-26T09:43:02;2.97;;;1.65;;
24143;SDS011;12307;50.828;6.080;2023-06-26T09:45:28;2.58;;;1.60;;
24143;SDS011;12307;50.828;6.080;2023-06-26T09:47:56;3.30;;;1.52;;
24143;SDS011;12307;50.828;6.080;2023-06-26T09:50:25;3.38;;;1.35;;
24143;SDS011;12307;50.828;6.080;2023-06-26T09:52:52;2.63;;;1.55;;
24143;SDS011;12307;50.828;6.080;2023-06-26T09:55:18;2.53;;;1.50;;
24143;SDS011;12307;50.828;6.080;2023-06-26T09:57:47;3.47;;;1.67;;
24143;SDS011;12307;50.828;6.080;2023-06-26T10:00:16;2.38;;;1.40;;
24143;SDS011;12307;50.828;6.080;2023-06-26T10:02:42;2.78;;;1.42;;
24143;SDS011;12307;50.828;6.080;2023-06-26T10:05:09;1.88;;;1.40;;
24143;SDS011;12307;50.828;6.080;2023-06-26T10:07:34;3.25;;;1.60;;
24143;SDS011;12307;50.828;6.080;2023-06-26T10:10:02;2.65;;;1.60;;
24143;SDS011;12307;50.828;6.080;2023-06-26T10:12:29;2.42;;;1.40;;
24143;SDS011;12307;50.828;6.080;2023-06-26T10:14:57;3.08;;;1.38;;
24143;SDS011;12307;50.828;6.080;2023-06-26T10:17:27;2.33;;;1.40;;
24143;SDS011;12307;50.828;6.080;2023-06-26T10:19:55;2.88;;;1.50;;
24143;SDS011;12307;50.828;6.080;2023-06-26T10:22:27;2.17;;;1.40;;
24143;SDS011;12307;50.828;6.080;2023-06-26T10:24:58;3.10;;;1.48;;
24143;SDS011;12307;50.828;6.080;2023-06-26T10:27:25;2.03;;;1.40;;
24143;SDS011;12307;50.828;6.080;2023-06-26T10:29:58;2.97;;;1.40;;
24143;SDS011;12307;50.828;6.080;2023-06-26T10:32:28;3.35;;;1.45;;
24143;SDS011;12307;50.828;6.080;2023-06-26T10:34:54;3.00;;;1.27;;
24143;SDS011;12307;50.828;6.080;2023-06-26T10:40:10;2.28;;;1.20;;
24143;SDS011;12307;50.828;6.080;2023-06-26T10:42:36;1.85;;;1.20;;
24143;SDS011;12307;50.828;6.080;2023-06-26T10:45:11;2.30;;;1.33;;
24143;SDS011;12307;50.828;6.080;2023-06-26T10:47:39;2.53;;;1.30;;
24143;SDS011;12307;50.828;6.080;2023-06-26T10:50:19;1.52;;;1.20;;
24143;SDS011;12307;50.828;6.080;2023-06-26T10:52:45;2.35;;;1.30;;
24143;SDS011;12307;50.828;6.080;2023-06-26T10:55:31;2.60;;;1.30;;
24143;SDS011;12307;50.828;6.080;2023-06-26T10:57:57;2.55;;;1.27;;
24143;SDS011;12307;50.828;6.080;2023-06-26T11:00:24;3.28;;;1.38;;
24143;SDS011;12307;50.828;6.080;2023-06-26T11:02:50;1.65;;;1.20;;
24143;SDS011;12307;50.828;6.080;2023-06-26T11:05:23;2.03;;;1.25;;
24143;SDS011;12307;50.828;6.080;2023-06-26T11:08:02;1.08;;;0.95;;
24143;SDS011;12307;50.828;6.080;2023-06-26T11:10:29;2.35;;;1.20;;
24143;SDS011;12307;50.828;6.080;2023-06-26T11:12:55;3.03;;;1.30;;
24143;SDS011;12307;50.828;6.080;2023-06-26T11:15:25;2.05;;;1.13;;
24143;SDS011;12307;50.828;6.080;2023-06-26T11:17:52;2.05;;;1.23;;
24143;SDS011;12307;50.828;6.080;2023-06-26T11:20:19;1.90;;;1.30;;
24143;SDS011;12307;50.828;6.080;2023-06-26T11:22:45;2.10;;;1.02;;
24143;SDS011;12307;50.828;6.080;2023-06-26T11:25:11;3.25;;;1.15;;
24143;SDS011;12307;50.828;6.080;2023-06-26T11:27:40;2.08;;;1.10;;
24143;SDS011;12307;50.828;6.080;2023-06-26T11:30:07;1.40;;;1.00;;
24143;SDS011;12307;50.828;6.080;2023-06-26T11:32:35;3.03;;;1.30;;
24143;SDS011;12307;50.828;6.080;2023-06-26T11:35:01;2.10;;;1.13;;
24143;SDS011;12307;50.828;6.080;2023-06-26T11:37:29;2.13;;;1.17;;
24143;SDS011;12307;50.828;6.080;2023-06-26T11:39:55;2.38;;;1.33;;
24143;SDS011;12307;50.828;6.080;2023-06-26T11:42:21;3.33;;;1.20;;
24143;SDS011;12307;50.828;6.080;2023-06-26T11:44:47;2.17;;;1.25;;
24143;SDS011;12307;50.828;6.080;2023-06-26T11:47:13;1.73;;;1.20;;
24143;SDS011;12307;50.828;6.080;2023-06-26T11:49:42;2.17;;;1.27;;
24143;SDS011;12307;50.828;6.080;2023-06-26T11:52:08;1.85;;;0.90;;
24143;SDS011;12307;50.828;6.080;2023-06-26T11:54:34;2.50;;;1.17;;
24143;SDS011;12307;50.828;6.080;2023-06-26T11:57:00;2.10;;;1.33;;
24143;SDS011;12307;50.828;6.080;2023-06-26T11:59:35;2.28;;;1.15;;
24143;SDS011;12307;50.828;6.080;2023-06-26T12:02:04;1.95;;;1.30;;
24143;SDS011;12307;50.828;6.080;2023-06-26T12:04:31;1.85;;;1.25;;
24143;SDS011;12307;50.828;6.080;2023-06-26T12:07:00;2.53;;;1.40;;
24143;SDS011;12307;50.828;6.080;2023-06-26T12:09:30;1.55;;;1.05;;
24143;SDS011;12307;50.828;6.080;2023-06-26T12:11:59;2.15;;;1.30;;
24143;SDS011;12307;50.828;6.080;2023-06-26T12:14:25;1.35;;;1.17;;
24143;SDS011;12307;50.828;6.080;2023-06-26T12:16:53;1.35;;;1.10;;
24143;SDS011;12307;50.828;6.080;2023-06-26T12:19:24;2.38;;;1.13;;
24143;SDS011;12307;50.828;6.080;2023-06-26T12:21:51;2.60;;;1.20;;
24143;SDS011;12307;50.828;6.080;2023-06-26T12:24:19;1.40;;;1.00;;
24143;SDS011;12307;50.828;6.080;2023-06-26T12:26:47;2.00;;;1.17;;
24143;SDS011;12307;50.828;6.080;2023-06-26T12:29:16;1.20;;;0.98;;
24143;SDS011;12307;50.828;6.080;2023-06-26T12:31:43;1.60;;;1.15;;
24143;SDS011;12307;50.828;6.080;2023-06-26T12:34:10;2.00;;;1.10;;
24143;SDS011;12307;50.828;6.080;2023-06-26T12:36:41;1.52;;;1.20;;
24143;SDS011;12307;50.828;6.080;2023-06-26T12:39:09;1.48;;;1.23;;
24143;SDS011;12307;50.828;6.080;2023-06-26T12:41:44;1.75;;;1.15;;
24143;SDS011;12307;50.828;6.080;2023-06-26T12:44:16;1.17;;;0.90;;
24143;SDS011;12307;50.828;6.080;2023-06-26T12:46:42;2.47;;;0.85;;
24143;SDS011;12307;50.828;6.080;2023-06-26T12:49:08;2.28;;;1.10;;
24143;SDS011;12307;50.828;6.080;2023-06-26T12:51:37;2.30;;;0.95;;
24143;SDS011;12307;50.828;6.080;2023-06-26T12:54:02;1.58;;;1.00;;
24143;SDS011;12307;50.828;6.080;2023-06-26T12:56:28;1.10;;;0.88;;
24143;SDS011;12307;50.828;6.080;2023-06-26T12:58:55;1.67;;;1.00;;
24143;SDS011;12307;50.828;6.080;2023-06-26T13:01:21;1.60;;;0.90;;
24143;SDS011;12307;50.828;6.080;2023-06-26T13:03:49;2.03;;;1.02;;
24143;SDS011;12307;50.828;6.080;2023-06-26T13:06:16;1.63;;;1.00;;
24143;SDS011;12307;50.828;6.080;2023-06-26T13:08:42;1.63;;;1.10;;
24143;SDS011;12307;50.828;6.080;2023-06-26T13:11:08;1.30;;;1.00;;
24143;SDS011;12307;50.828;6.080;2023-06-26T13:13:34;2.70;;;1.00;;
24143;SDS011;12307;50.828;6.080;2023-06-26T13:16:01;2.20;;;1.00;;
24143;SDS011;12307;50.828;6.080;2023-06-26T13:18:27;2.55;;;1.10;;
24143;SDS011;12307;50.828;6.080;2023-06-26T13:20:53;1.50;;;0.93;;
24143;SDS011;12307;50.828;6.080;2023-06-26T13:23:18;2.45;;;1.13;;
24143;SDS011;12307;50.828;6.080;2023-06-26T13:25:44;2.15;;;1.20;;
24143;SDS011;12307;50.828;6.080;2023-06-26T13:28:10;1.48;;;1.00;;
24143;SDS011;12307;50.828;6.080;2023-06-26T13:30:36;1.92;;;1.20;;
24143;SDS011;12307;50.828;6.080;2023-06-26T13:33:03;1.85;;;1.10;;
24143;SDS011;12307;50.828;6.080;2023-06-26T13:35:29;1.88;;;1.00;;
24143;SDS011;12307;50.828;6.080;2023-06-26T13:37:54;2.30;;;1.05;;
24143;SDS011;12307;50.828;6.080;2023-06-26T13:40:20;2.55;;;1.00;;
24143;SDS011;12307;50.828;6.080;2023-06-26T13:42:45;2.55;;;1.27;;
24143;SDS011;12307;50.828;6.080;2023-06-26T13:45:11;2.28;;;1.20;;
24143;SDS011;12307;50.828;6.080;2023-06-26T13:47:37;1.52;;;1.00;;
24143;SDS011;12307;50.828;6.080;2023-06-26T13:50:07;2.95;;;1.17;;
24143;SDS011;12307;50.828;6.080;2023-06-26T13:52:34;1.52;;;1.00;;
24143;SDS011;12307;50.828;6.080;2023-06-26T13:55:00;1.70;;;1.02;;
24143;SDS011;12307;50.828;6.080;2023-06-26T13:57:28;2.33;;;1.20;;
24143;SDS011;12307;50.828;6.080;2023-06-26T13:59:55;2.25;;;1.20;;
24143;SDS011;12307;50.828;6.080;2023-06-26T14:02:24;1.10;;;0.98;;
24143;SDS011;12307;50.828;6.080;2023-06-26T14:04:49;1.23;;;0.90;;
24143;SDS011;12307;50.828;6.080;2023-06-26T14:07:16;1.23;;;0.90;;
24143;SDS011;12307;50.828;6.080;2023-06-26T14:09:42;2.63;;;1.02;;
24143;SDS011;12307;50.828;6.080;2023-06-26T14:12:08;2.03;;;1.00;;
24143;SDS011;12307;50.828;6.080;2023-06-26T14:14:34;1.45;;;1.00;;
24143;SDS011;12307;50.828;6.080;2023-06-26T14:17:00;1.60;;;1.05;;
24143;SDS011;12307;50.828;6.080;2023-06-26T14:19:25;1.63;;;1.00;;
24143;SDS011;12307;50.828;6.080;2023-06-26T14:21:51;1.50;;;1.00;;
24143;SDS011;12307;50.828;6.080;2023-06-26T14:24:18;2.33;;;1.02;;
24143;SDS011;12307;50.828;6.080;2023-06-26T14:26:44;2.70;;;1.20;;
24143;SDS011;12307;50.828;6.080;2023-06-26T14:29:10;2.75;;;1.13;;
24143;SDS011;12307;50.828;6.080;2023-06-26T14:31:35;1.85;;;1.00;;
24143;SDS011;12307;50.828;6.080;2023-06-26T14:34:01;3.75;;;1.13;;
24143;SDS011;12307;50.828;6.080;2023-06-26T14:36:28;1.70;;;1.15;;
24143;SDS011;12307;50.828;6.080;2023-06-26T14:38:56;1.88;;;1.23;;
24143;SDS011;12307;50.828;6.080;2023-06-26T14:41:23;2.05;;;1.00;;
24143;SDS011;12307;50.828;6.080;2023-06-26T14:43:50;1.50;;;1.08;;
24143;SDS011;12307;50.828;6.080;2023-06-26T14:46:15;1.48;;;1.00;;
24143;SDS011;12307;50.828;6.080;2023-06-26T14:48:41;1.70;;;1.17;;